Qm Of London — ZCTD7 — position and weather

sailwx.info

Track history (hours):
 
Tides and Currents Weather Stations Pressure Air Temp Water Temp Dewpoint Dewpoint Depression Visibility Wind Speed Wind Dir Waves Ship Positions

Qm Of London

Last reported at 2015-Jul-04 02:31 UTC. Time now 2015-Jul-04 03:23 UTC.
Position N 37°25' E 025°20'.

Length 50 m; draft 2.7 m.

Type: Pleasure craft. MMSI: 319780000.

Date/timePositionNaut miles runAvg speedWind from/ knotsBaromVisibWave heightAir tempDewpointWater temp
2015-Jul-04 02:31N 37°25' E 025°20'0 0.0
2015-Jul-04 01:32N 37°25' E 025°20'0 0.0
2015-Jul-04 00:33N 37°25' E 025°20'0 0.0
2015-Jul-03 23:33N 37°25' E 025°20'0 0.0
2015-Jul-03 22:31N 37°25' E 025°20'0 0.0
2015-Jul-03 21:32N 37°25' E 025°20'0 0.0
2015-Jul-03 20:32N 37°25' E 025°20'0 0.0
2015-Jul-03 19:33N 37°25' E 025°20'0 0.0
2015-Jul-03 18:34N 37°25' E 025°20'0 0.0
2015-Jul-03 17:31N 37°25' E 025°20'0 0.0
2015-Jul-03 16:32N 37°25' E 025°20'0 0.0
2015-Jul-03 15:33N 37°25' E 025°20'0 0.0
2015-Jul-03 14:33N 37°25' E 025°20'0 0.0
2015-Jul-03 13:31N 37°25' E 025°20'0 0.0
2015-Jul-03 12:32N 37°25' E 025°20'0 0.0
2015-Jul-03 11:32N 37°25' E 025°20'0 0.0
2015-Jul-03 10:33N 37°25' E 025°20'2 2.5
2015-Jul-03 09:33N 37°25' E 025°17'1414.1
2015-Jul-03 08:33N 37°33' E 025°02'6513.0
2015-Jul-03 03:33N 37°41' E 023°41'1313.2
2015-Jul-03 02:33N 37°51' E 023°30'2013.7
2015-Jul-03 01:06N 37°53' E 023°05'  
2015-Jun-30 13:04N 42°10' E 018°37'611.1
2015-Jun-30 12:33N 42°15' E 018°35'1110.9
2015-Jun-30 11:33N 42°26' E 018°33'6 6.3
2015-Jun-30 10:32N 42°26' E 018°41'0 0.0
2015-Jun-30 09:33N 42°26' E 018°41'0 0.1
2015-Jun-30 08:31N 42°26' E 018°41'0 0.0
2015-Jun-30 07:31N 42°26' E 018°41'0 0.0
2015-Jun-30 06:32N 42°26' E 018°41'0 0.2
2015-Jun-30 05:31N 42°26' E 018°41'0 0.0
2015-Jun-30 04:31N 42°26' E 018°41'0 0.0
2015-Jun-30 03:32N 42°26' E 018°41'0 0.0
2015-Jun-30 02:33N 42°26' E 018°41'0 0.0
2015-Jun-30 01:33N 42°26' E 018°41'6 6.3
2015-Jun-30 00:32N 42°24' E 018°33'9 9.0
2015-Jun-29 23:31N 42°28' E 018°21'  
Track history (hours):
 
Tides and Currents Weather Stations Pressure Air Temp Water Temp Dewpoint Dewpoint Depression Visibility Wind Speed Wind Dir Waves Ship Positions

Qm Of London

Last reported at 2015-Jul-04 02:31 UTC. Time now 2015-Jul-04 03:23 UTC.
Position N 37°25' E 025°20'.

Length 50 m; draft 2.7 m.

Type: Pleasure craft. MMSI: 319780000.

Date/timePositionNaut miles runAvg speedWind from/ knotsBaromVisibWave heightAir tempDewpointWater temp
2015-Jul-04 02:31N 37°25' E 025°20'0 0.0
2015-Jul-04 01:32N 37°25' E 025°20'0 0.0
2015-Jul-04 00:33N 37°25' E 025°20'0 0.0
2015-Jul-03 23:33N 37°25' E 025°20'0 0.0
2015-Jul-03 22:31N 37°25' E 025°20'0 0.0
2015-Jul-03 21:32N 37°25' E 025°20'0 0.0
2015-Jul-03 20:32N 37°25' E 025°20'0 0.0
2015-Jul-03 19:33N 37°25' E 025°20'0 0.0
2015-Jul-03 18:34N 37°25' E 025°20'0 0.0
2015-Jul-03 17:31N 37°25' E 025°20'0 0.0
2015-Jul-03 16:32N 37°25' E 025°20'0 0.0
2015-Jul-03 15:33N 37°25' E 025°20'0 0.0
2015-Jul-03 14:33N 37°25' E 025°20'0 0.0
2015-Jul-03 13:31N 37°25' E 025°20'0 0.0
2015-Jul-03 12:32N 37°25' E 025°20'0 0.0
2015-Jul-03 11:32N 37°25' E 025°20'0 0.0
2015-Jul-03 10:33N 37°25' E 025°20'2 2.5
2015-Jul-03 09:33N 37°25' E 025°17'1414.1
2015-Jul-03 08:33N 37°33' E 025°02'6513.0
2015-Jul-03 03:33N 37°41' E 023°41'1313.2
2015-Jul-03 02:33N 37°51' E 023°30'2013.7
2015-Jul-03 01:06N 37°53' E 023°05'  
2015-Jun-30 13:04N 42°10' E 018°37'611.1
2015-Jun-30 12:33N 42°15' E 018°35'1110.9
2015-Jun-30 11:33N 42°26' E 018°33'6 6.3
2015-Jun-30 10:32N 42°26' E 018°41'0 0.0
2015-Jun-30 09:33N 42°26' E 018°41'0 0.1
2015-Jun-30 08:31N 42°26' E 018°41'0 0.0
2015-Jun-30 07:31N 42°26' E 018°41'0 0.0
2015-Jun-30 06:32N 42°26' E 018°41'0 0.2
2015-Jun-30 05:31N 42°26' E 018°41'0 0.0
2015-Jun-30 04:31N 42°26' E 018°41'0 0.0
2015-Jun-30 03:32N 42°26' E 018°41'0 0.0
2015-Jun-30 02:33N 42°26' E 018°41'0 0.0
2015-Jun-30 01:33N 42°26' E 018°41'6 6.3
2015-Jun-30 00:32N 42°24' E 018°33'9 9.0
2015-Jun-29 23:31N 42°28' E 018°21'  

Dump ship's entire track history